Time;durP1;ratioP1;P1;durP2;ratioP2;P2;SDS_P1;SDS_P2;PMS_P1;PMS_P2;Temp;Humidity;BMP_temperature;BMP_pressure;BME280_temperature;BME280_humidity;BME280_pressure;Samples;Min_cycle;Max_cycle;Signal;HPM_P1;HPM_P2
2022/08/24 00:01:43;;;;;;;23.50;12.00;;;;;;;19.42;100.00;100203.01;104966;1271;60778;-79
2022/08/24 00:04:32;;;;;;;22.90;10.60;;;;;;;19.45;100.00;100202.41;105059;1271;60491;-79
2022/08/24 00:07:20;;;;;;;20.20;9.10;;;;;;;19.47;100.00;100195.20;105070;1271;74710;-78
2022/08/24 00:10:14;;;;;;;25.80;12.00;;;;;;;19.47;100.00;100195.97;105180;1271;68336;-79
2022/08/24 00:13:02;;;;;;;26.30;11.50;;;;;;;19.47;100.00;100195.48;105141;1271;73183;-78
2022/08/24 00:15:51;;;;;;;25.30;10.80;;;;;;;19.48;100.00;100193.14;105126;1271;59534;-79
2022/08/24 00:18:39;;;;;;;26.80;11.30;;;;;;;19.49;100.00;100197.17;105147;1271;61892;-79
2022/08/24 00:21:27;;;;;;;25.00;11.00;;;;;;;19.49;100.00;100196.26;105090;1271;74761;-79
2022/08/24 00:24:15;;;;;;;25.80;10.30;;;;;;;19.49;100.00;100193.54;105184;1271;68193;-78
2022/08/24 00:27:05;;;;;;;22.50;9.60;;;;;;;19.50;100.00;100190.39;105392;1271;73856;-78
2022/08/24 00:29:54;;;;;;;20.80;9.90;;;;;;;19.49;100.00;100187.93;105080;1271;60501;-79
2022/08/24 00:32:45;;;;;;;19.70;10.30;;;;;;;19.48;100.00;100184.45;105032;1271;61082;-80
2022/08/24 00:35:33;;;;;;;20.70;10.00;;;;;;;19.48;100.00;100184.38;105278;1271;74266;-79
2022/08/24 00:38:21;;;;;;;22.60;10.70;;;;;;;19.45;100.00;100183.05;105074;1271;68625;-80
2022/08/24 00:41:15;;;;;;;22.80;10.70;;;;;;;19.42;100.00;100182.29;104917;1271;72690;-78
2022/08/24 00:44:04;;;;;;;22.60;9.80;;;;;;;19.39;100.00;100180.81;105120;1271;59752;-81
2022/08/24 00:47:19;;;;;;;22.10;10.60;;;;;;;19.36;100.00;100175.05;105528;1271;59758;-79
2022/08/24 00:50:23;;;;;;;22.90;10.10;;;;;;;19.33;100.00;100171.56;105387;1271;71074;-80
2022/08/24 00:53:33;;;;;;;20.20;10.80;;;;;;;19.32;100.00;100169.00;105228;1271;67363;-80
2022/08/24 00:56:30;;;;;;;24.60;10.70;;;;;;;19.33;100.00;100170.15;104843;1274;72851;-79
2022/08/24 00:59:29;;;;;;;21.30;10.00;;;;;;;19.33;100.00;100171.98;105166;1271;59952;-78
2022/08/24 01:02:24;;;;;;;18.50;10.80;;;;;;;19.31;100.00;100168.10;104990;1271;59696;-78
2022/08/24 01:05:17;;;;;;;22.10;10.30;;;;;;;19.31;100.00;100165.33;105268;1274;74803;-77
2022/08/24 01:08:09;;;;;;;20.00;10.00;;;;;;;19.31;100.00;100165.13;105114;1271;69935;-78
2022/08/24 01:11:11;;;;;;;23.80;10.80;;;;;;;19.29;100.00;100161.30;105248;1271;73948;-80
2022/08/24 01:14:01;;;;;;;21.50;10.20;;;;;;;19.28;100.00;100157.77;104760;1271;59807;-80
2022/08/24 01:19:59;;;;;;;19.90;10.10;;;;;;;19.28;100.00;100159.44;105230;1271;73788;-79
2022/08/24 01:23:33;;;;;;;18.90;9.10;;;;;;;19.26;100.00;100156.56;105313;1271;67915;-82
2022/08/24 01:26:38;;;;;;;16.90;9.50;;;;;;;19.24;100.00;100160.23;105136;1271;72626;-79
2022/08/24 01:29:30;;;;;;;18.20;9.10;;;;;;;19.20;100.00;100159.70;105179;1271;59714;-78
2022/08/24 01:32:23;;;;;;;19.00;9.60;;;;;;;19.19;100.00;100157.67;105363;1271;60539;-79
2022/08/24 01:35:11;;;;;;;19.10;9.30;;;;;;;19.19;100.00;100160.38;105081;1271;74138;-79
2022/08/24 01:38:02;;;;;;;20.00;9.40;;;;;;;19.18;100.00;100161.70;105058;1271;66747;-79
2022/08/24 01:41:00;;;;;;;18.30;9.80;;;;;;;19.20;100.00;100163.34;104931;1272;72449;-79
2022/08/24 01:43:48;;;;;;;17.20;9.20;;;;;;;19.21;100.00;100168.20;104934;1271;59832;-77
2022/08/24 01:46:36;;;;;;;22.70;9.90;;;;;;;19.24;100.00;100169.07;105261;1271;60561;-77
2022/08/24 01:49:31;;;;;;;18.70;9.80;;;;;;;19.27;100.00;100175.23;105079;1271;72249;-79
2022/08/24 01:52:25;;;;;;;18.60;9.20;;;;;;;19.31;100.00;100176.33;105226;1271;68999;-80
2022/08/24 01:55:30;;;;;;;17.70;9.50;;;;;;;19.33;100.00;100173.84;105166;1271;74477;-79
2022/08/24 01:58:19;;;;;;;17.90;8.70;;;;;;;19.34;100.00;100176.92;104724;1275;59955;-79
2022/08/24 02:01:06;;;;;;;20.60;10.30;;;;;;;19.35;100.00;100172.98;103720;1274;1726737;-79
2022/08/24 02:03:59;;;;;;;19.80;9.00;;;;;;;19.35;100.00;100172.80;104705;1274;75019;-79
2022/08/24 02:06:47;;;;;;;17.20;8.80;;;;;;;19.36;100.00;100167.13;104764;1274;69559;-78
2022/08/24 02:09:35;;;;;;;15.80;8.40;;;;;;;19.35;100.00;100168.98;104795;1274;74538;-77
2022/08/24 02:12:24;;;;;;;15.10;8.70;;;;;;;19.34;100.00;100174.90;104718;1277;59723;-81
2022/08/24 02:15:13;;;;;;;15.80;8.80;;;;;;;19.32;100.00;100172.83;104840;1274;59661;-79
2022/08/24 02:18:01;;;;;;;14.60;8.10;;;;;;;19.33;100.00;100176.70;104768;1274;74798;-77
2022/08/24 02:20:49;;;;;;;14.40;7.70;;;;;;;19.33;100.00;100178.08;104897;1275;69493;-79
2022/08/24 02:23:40;;;;;;;15.20;7.90;;;;;;;19.33;100.00;100187.02;105025;1274;74443;-77
2022/08/24 02:26:28;;;;;;;16.90;7.70;;;;;;;19.34;100.00;100195.23;104646;1275;60288;-78
2022/08/24 02:29:18;;;;;;;13.50;7.70;;;;;;;19.36;100.00;100200.42;104786;1274;59679;-79
2022/08/24 02:32:06;;;;;;;16.20;7.80;;;;;;;19.37;100.00;100203.73;104947;1271;73306;-79
2022/08/24 02:34:57;;;;;;;17.00;8.00;;;;;;;19.38;100.00;100205.55;104957;1271;68954;-79
2022/08/24 02:37:45;;;;;;;17.00;8.20;;;;;;;19.37;100.00;100209.80;105242;1271;72985;-78
2022/08/24 02:40:33;;;;;;;20.10;8.10;;;;;;;19.37;100.00;100212.70;105262;1271;61327;-78
2022/08/24 02:43:23;;;;;;;16.00;7.90;;;;;;;19.36;100.00;100211.48;105065;1271;62036;-79
2022/08/24 02:46:24;;;;;;;19.80;7.60;;;;;;;19.37;100.00;100209.05;105035;1274;73886;-78
2022/08/24 02:49:13;;;;;;;15.30;7.40;;;;;;;19.38;100.00;100211.18;105003;1274;69165;-78
2022/08/24 02:52:02;;;;;;;14.50;7.10;;;;;;;19.38;100.00;100212.26;104645;1274;72605;-78
2022/08/24 02:54:51;;;;;;;15.10;7.10;;;;;;;19.37;100.00;100210.52;104831;1274;59782;-77
2022/08/24 02:57:40;;;;;;;15.30;7.30;;;;;;;19.36;100.00;100213.54;104847;1274;59746;-80
2022/08/24 03:00:28;;;;;;;15.20;7.00;;;;;;;19.35;100.00;100212.36;104888;1274;73468;-78
2022/08/24 03:03:17;;;;;;;20.30;8.30;;;;;;;19.34;100.00;100211.73;104957;1274;68424;-78
2022/08/24 03:06:07;;;;;;;16.10;7.20;;;;;;;19.34;100.00;100210.73;104995;1274;74201;-80
2022/08/24 03:08:55;;;;;;;16.60;6.90;;;;;;;19.35;100.00;100212.36;104708;1274;60833;-78
2022/08/24 03:11:44;;;;;;;18.50;7.60;;;;;;;19.36;100.00;100209.52;105202;1274;60859;-79
2022/08/24 03:14:34;;;;;;;20.20;7.40;;;;;;;19.39;100.00;100215.99;104938;1274;73209;-76
2022/08/24 03:17:32;;;;;;;19.60;8.10;;;;;;;19.40;100.00;100213.27;104731;1275;69501;-78
2022/08/24 03:20:21;;;;;;;19.70;8.10;;;;;;;19.41;100.00;100220.13;105137;1274;74391;-75
2022/08/24 03:23:09;;;;;;;17.30;7.80;;;;;;;19.43;100.00;100225.38;104733;1272;59672;-76
2022/08/24 03:25:58;;;;;;;18.30;8.20;;;;;;;19.46;100.00;100228.39;104904;1272;60623;-75
2022/08/24 03:28:46;;;;;;;21.10;8.00;;;;;;;19.49;100.00;100231.65;105084;1272;72201;-76
2022/08/24 03:31:37;;;;;;;19.40;8.80;;;;;;;19.51;100.00;100233.23;105167;1271;66962;-75
2022/08/24 03:34:24;;;;;;;18.20;8.70;;;;;;;19.53;100.00;100235.15;105153;1271;74476;-75
2022/08/24 03:37:13;;;;;;;18.80;9.20;;;;;;;19.56;100.00;100232.85;105184;1271;60284;-76
2022/08/24 03:40:01;;;;;;;18.50;9.50;;;;;;;19.60;100.00;100234.38;105043;1274;60521;-75
2022/08/24 03:42:51;;;;;;;18.90;8.70;;;;;;;19.62;100.00;100243.02;104675;1277;73468;-77
2022/08/24 03:45:39;;;;;;;16.80;8.50;;;;;;;19.62;100.00;100246.63;104689;1278;69060;-76
2022/08/24 03:48:29;;;;;;;20.80;9.40;;;;;;;19.64;100.00;100250.70;104714;1277;73479;-76
2022/08/24 03:51:22;;;;;;;16.30;8.60;;;;;;;19.67;100.00;100256.86;104733;1274;60279;-75
2022/08/24 03:54:11;;;;;;;21.90;9.20;;;;;;;19.70;100.00;100254.33;104652;1274;60432;-76
2022/08/24 03:57:00;;;;;;;22.80;9.70;;;;;;;19.74;100.00;100257.85;104703;1275;74531;-76
2022/08/24 03:59:48;;;;;;;20.80;9.10;;;;;;;19.77;100.00;100257.84;104746;1274;69564;-77
2022/08/24 04:02:37;;;;;;;23.60;9.90;;;;;;;19.79;100.00;100262.47;104661;1274;72927;-76
2022/08/24 04:05:26;;;;;;;19.30;9.70;;;;;;;19.81;100.00;100264.64;105009;1275;60857;-75
2022/08/24 04:08:21;;;;;;;19.60;9.90;;;;;;;19.84;100.00;100267.52;104790;1274;62095;-76
2022/08/24 04:11:17;;;;;;;20.10;9.80;;;;;;;19.88;100.00;100270.14;104739;1275;74784;-76
2022/08/24 04:14:07;;;;;;;23.80;10.00;;;;;;;19.93;100.00;100277.39;104662;1274;67822;-76
2022/08/24 04:17:33;;;;;;;20.10;9.50;;;;;;;19.98;100.00;100275.67;104812;1271;72477;-77
2022/08/24 04:20:22;;;;;;;25.10;10.00;;;;;;;20.01;100.00;100272.33;105112;1271;59900;-76
2022/08/24 04:23:13;;;;;;;24.20;10.30;;;;;;;20.04;100.00;100275.20;105153;1271;62358;-77
2022/08/24 04:26:03;;;;;;;20.30;9.40;;;;;;;20.08;100.00;100279.25;105184;1271;74752;-77
2022/08/24 04:28:51;;;;;;;22.50;10.80;;;;;;;20.11;100.00;100283.01;104977;1272;68292;-78
2022/08/24 04:31:41;;;;;;;18.60;9.10;;;;;;;20.11;100.00;100282.13;105103;1271;71529;-78
2022/08/24 04:34:29;;;;;;;24.80;10.60;;;;;;;20.13;100.00;100284.85;105033;1271;61327;-77
2022/08/24 04:37:17;;;;;;;21.20;10.10;;;;;;;20.15;100.00;100281.46;105136;1271;60385;-78
2022/08/24 04:40:14;;;;;;;23.90;9.30;;;;;;;20.19;100.00;100288.10;104985;1271;74762;-78
2022/08/24 04:43:08;;;;;;;18.20;9.10;;;;;;;20.21;100.00;100288.23;105004;1271;67855;-79
2022/08/24 04:45:57;;;;;;;18.90;7.50;;;;;;;20.24;100.00;100290.85;105065;1271;73440;-77
2022/08/24 04:48:48;;;;;;;18.50;8.40;;;;;;;20.29;100.00;100286.44;105456;1271;61362;-76
2022/08/24 04:51:37;;;;;;;16.30;8.40;;;;;;;20.39;100.00;100282.48;105208;1271;61381;-79
2022/08/24 04:54:26;;;;;;;17.60;7.80;;;;;;;20.52;100.00;100283.68;104931;1271;72991;-78
2022/08/24 04:57:24;;;;;;;17.60;7.70;;;;;;;20.63;100.00;100289.54;105021;1272;68030;-78
2022/08/24 05:00:13;;;;;;;23.00;8.60;;;;;;;20.76;100.00;100288.57;105201;1271;74442;-76
2022/08/24 05:03:03;;;;;;;18.20;7.50;;;;;;;20.92;100.00;100292.41;105161;1271;61327;-79
2022/08/24 05:05:52;;;;;;;17.60;7.00;;;;;;;21.07;100.00;100290.44;105156;1271;61344;-76
2022/08/24 05:08:41;;;;;;;15.10;7.40;;;;;;;21.12;100.00;100289.45;105204;1271;73244;-79
2022/08/24 05:11:30;;;;;;;18.10;7.00;;;;;;;21.13;100.00;100291.59;106129;1271;66925;-76
2022/08/24 05:14:19;;;;;;;15.00;6.60;;;;;;;21.15;100.00;100288.34;106030;1271;72919;-77
2022/08/24 05:17:08;;;;;;;16.80;7.00;;;;;;;21.17;100.00;100286.29;105520;1271;60286;-78
2022/08/24 05:19:57;;;;;;;16.80;7.00;;;;;;;21.20;100.00;100285.92;105237;1271;61083;-79
2022/08/24 05:22:45;;;;;;;18.10;6.50;;;;;;;21.22;100.00;100286.30;105167;1271;73260;-78
2022/08/24 05:25:34;;;;;;;17.60;6.60;;;;;;;21.25;99.95;100284.42;105054;1271;68137;-76
2022/08/24 05:28:23;;;;;;;17.00;7.20;;;;;;;21.32;99.70;100287.70;105199;1271;74379;-77
2022/08/24 05:31:17;;;;;;;17.80;7.00;;;;;;;21.44;99.47;100285.34;104996;1271;61260;-71
2022/08/24 05:34:06;;;;;;;19.90;6.50;;;;;;;21.59;98.22;100290.42;105003;1271;62046;-71
2022/08/24 05:36:54;;;;;;;21.90;10.80;;;;;;;21.72;97.31;100295.77;105057;1271;73488;-71
2022/08/24 05:40:08;;;;;;;18.00;6.60;;;;;;;21.78;97.04;100294.10;105060;1271;68383;-71
2022/08/24 05:42:56;;;;;;;17.00;9.70;;;;;;;21.83;96.69;100291.54;105263;1271;72951;-71
2022/08/24 05:45:44;;;;;;;18.10;8.10;;;;;;;21.86;96.54;100296.69;105080;1271;60759;-73
2022/08/24 05:48:37;;;;;;;17.00;8.40;;;;;;;22.00;96.27;100300.23;105114;1271;62043;-72
2022/08/24 05:51:29;;;;;;;15.40;6.30;;;;;;;22.28;94.85;100306.63;105140;1271;73334;-74
2022/08/24 05:54:26;;;;;;;14.40;5.90;;;;;;;22.35;93.80;100306.02;105151;1271;69549;-74
2022/08/24 05:57:17;;;;;;;17.70;6.10;;;;;;;22.32;93.81;100308.26;105330;1271;74348;-71
2022/08/24 06:00:20;;;;;;;14.90;5.30;;;;;;;22.44;93.12;100307.89;105474;1271;59775;-72
2022/08/24 06:03:08;;;;;;;14.40;5.20;;;;;;;22.71;92.00;100305.66;105148;1271;61843;-73
2022/08/24 06:06:18;;;;;;;16.10;5.20;;;;;;;23.07;90.93;100300.04;105062;1272;73983;-74
2022/08/24 06:09:16;;;;;;;15.70;5.50;;;;;;;23.65;86.21;100298.06;105199;1272;66675;-73
2022/08/24 06:12:07;;;;;;;16.60;5.80;;;;;;;23.81;84.47;100306.85;105176;1272;72749;-73
2022/08/24 06:14:55;;;;;;;14.40;5.00;;;;;;;23.85;83.84;100303.61;105115;1271;59660;-72
2022/08/24 06:17:43;;;;;;;12.70;4.90;;;;;;;23.75;82.77;100307.10;105075;1271;62288;-72
2022/08/24 06:20:37;;;;;;;17.70;5.20;;;;;;;23.77;81.81;100312.30;104976;1271;73676;-74
2022/08/24 06:23:25;;;;;;;17.40;5.10;;;;;;;23.76;82.58;100313.43;104958;1271;67341;-72
2022/08/24 06:29:26;;;;;;;19.00;4.80;;;;;;;23.78;81.49;100315.69;105361;1271;60279;-72
2022/08/24 06:32:17;;;;;;;15.80;5.40;;;;;;;23.73;80.83;100316.37;105064;1271;61307;-73
2022/08/24 06:35:06;;;;;;;22.60;7.90;;;;;;;23.70;80.54;100315.18;105014;1271;73258;-72
2022/08/24 06:37:58;;;;;;;19.30;4.70;;;;;;;24.55;78.27;100320.50;104952;1271;69770;-72
2022/08/24 06:40:46;;;;;;;15.00;4.90;;;;;;;26.26;73.07;100320.73;104966;1271;74516;-73
2022/08/24 06:43:36;;;;;;;12.40;4.00;;;;;;;27.52;67.41;100315.38;104940;1271;59735;-72
2022/08/24 06:46:30;;;;;;;18.40;4.50;;;;;;;27.89;64.70;100314.54;105216;1271;61054;-72
2022/08/24 06:49:20;;;;;;;15.90;4.30;;;;;;;27.78;63.24;100315.31;104947;1271;74681;-73
2022/08/24 06:52:10;;;;;;;16.50;3.90;;;;;;;27.48;63.42;100319.30;105138;1271;69378;-74
2022/08/24 06:54:58;;;;;;;12.40;4.40;;;;;;;27.12;64.14;100320.37;105210;1271;73466;-72
2022/08/24 06:57:47;;;;;;;18.40;4.90;;;;;;;26.94;65.05;100328.07;105090;1271;59656;-73
2022/08/24 07:00:40;;;;;;;11.00;3.70;;;;;;;26.98;64.90;100328.76;105116;1271;62223;-74
2022/08/24 07:03:28;;;;;;;10.80;3.70;;;;;;;27.37;64.45;100324.05;104931;1271;73290;-73
2022/08/24 07:06:24;;;;;;;15.70;4.10;;;;;;;27.58;63.38;100324.37;105383;1271;67956;-73
2022/08/24 07:09:15;;;;;;;15.50;4.20;;;;;;;27.36;62.47;100329.10;105432;1270;73433;-74
2022/08/24 07:12:04;;;;;;;15.00;4.70;;;;;;;26.88;63.12;100336.56;105110;1271;59755;-72
2022/08/24 07:14:52;;;;;;;18.60;7.80;;;;;;;26.41;64.26;100339.45;105341;1271;59669;-73
2022/08/24 07:17:41;;;;;;;16.70;5.20;;;;;;;26.03;65.64;100345.29;105193;1271;73051;-74
2022/08/24 07:20:29;;;;;;;16.80;5.30;;;;;;;25.69;67.16;100346.39;105273;1271;68857;-72
2022/08/24 07:23:34;;;;;;;16.00;5.00;;;;;;;25.32;67.79;100348.92;105218;1271;72258;-73
2022/08/24 07:26:34;;;;;;;14.30;5.40;;;;;;;25.04;69.02;100347.87;105486;1271;59653;-74
2022/08/24 07:29:23;;;;;;;13.60;5.50;;;;;;;24.95;69.44;100347.84;105191;1271;61888;-73
2022/08/24 07:32:32;;;;;;;14.60;4.80;;;;;;;25.03;69.84;100347.19;105364;1271;73635;-74
2022/08/24 07:35:21;;;;;;;16.00;7.30;;;;;;;24.95;70.26;100349.65;104937;1271;69817;-75
2022/08/24 07:38:11;;;;;;;14.80;5.50;;;;;;;24.94;70.70;100353.13;105033;1271;73343;-74
2022/08/24 07:41:00;;;;;;;15.20;5.10;;;;;;;24.96;70.87;100351.53;105004;1271;59883;-71
2022/08/24 07:44:11;;;;;;;16.90;4.80;;;;;;;25.12;70.61;100350.16;105347;1271;62273;-74
2022/08/24 07:47:02;;;;;;;17.70;6.50;;;;;;;25.24;70.49;100352.02;105632;1271;73299;-74
2022/08/24 07:50:16;;;;;;;15.70;5.90;;;;;;;25.39;69.63;100353.64;104900;1274;69184;-73
2022/08/24 07:53:07;;;;;;;13.30;5.50;;;;;;;25.64;68.55;100353.31;105440;1269;72887;-75
2022/08/24 07:56:04;;;;;;;17.70;7.00;;;;;;;26.41;66.74;100359.75;105417;1271;59768;-73
2022/08/24 07:58:52;;;;;;;15.00;4.90;;;;;;;27.28;63.45;100355.14;105034;1271;60242;-73
2022/08/24 08:01:42;;;;;;;17.80;5.60;;;;;;;27.67;61.36;100354.05;105382;1271;73791;-72
2022/08/24 08:04:31;;;;;;;12.20;3.80;;;;;;;28.45;59.18;100352.16;105183;1271;69589;-73
2022/08/24 08:07:20;;;;;;;14.20;4.20;;;;;;;29.78;55.75;100352.00;105449;1271;74413;-75
2022/08/24 08:10:10;;;;;;;15.10;4.00;;;;;;;30.97;51.67;100356.30;105143;1271;59669;-75
2022/08/24 08:12:59;;;;;;;14.80;3.90;;;;;;;31.12;49.42;100355.73;105276;1271;62043;-73
2022/08/24 08:15:46;;;;;;;11.90;3.90;;;;;;;31.02;49.83;100360.29;105239;1271;74768;-72
2022/08/24 08:18:35;;;;;;;12.20;3.60;;;;;;;30.96;49.44;100354.95;105255;1271;68177;-72
2022/08/24 08:24:35;;;;;;;12.90;6.60;;;;;;;31.35;48.20;100355.19;105224;1271;59724;-70
2022/08/24 08:27:24;;;;;;;11.40;4.00;;;;;;;31.81;47.63;100347.92;104930;1271;60870;-73
2022/08/24 08:30:14;;;;;;;12.90;4.20;;;;;;;32.16;46.48;100350.45;105442;1270;74520;-74
2022/08/24 08:33:02;;;;;;;15.40;5.20;;;;;;;32.33;46.13;100349.21;105052;1270;68380;-74
2022/08/24 08:36:01;;;;;;;13.40;4.40;;;;;;;32.65;45.20;100350.57;105170;1271;74371;-75
2022/08/24 08:38:50;;;;;;;13.10;4.00;;;;;;;33.33;43.04;100352.46;105075;1271;59746;-72
2022/08/24 08:41:53;;;;;;;11.80;3.50;;;;;;;34.14;41.58;100354.20;105236;1271;61195;-72
2022/08/24 08:45:04;;;;;;;12.20;3.00;;;;;;;34.60;40.47;100350.90;105402;1271;73744;-72
2022/08/24 08:48:26;;;;;;;13.50;3.90;;;;;;;34.09;40.32;100351.20;105343;1271;69625;-74
2022/08/24 08:51:47;;;;;;;12.70;3.80;;;;;;;33.27;41.07;100345.77;105022;1271;71341;-77
2022/08/24 08:54:44;;;;;;;13.50;4.30;;;;;;;32.53;43.17;100344.92;105096;1271;59663;-74
2022/08/24 08:58:02;;;;;;;12.50;3.70;;;;;;;31.93;44.42;100343.85;105326;1271;60325;-73
2022/08/24 09:01:12;;;;;;;11.90;3.70;;;;;;;31.39;45.15;100348.05;105045;1271;74518;-75
2022/08/24 09:04:16;;;;;;;12.50;3.90;;;;;;;30.94;46.42;100348.11;105444;1271;68074;-74
2022/08/24 09:07:37;;;;;;;12.20;4.30;;;;;;;30.75;47.18;100345.73;105163;1271;74840;-74
2022/08/24 09:11:04;;;;;;;20.30;14.60;;;;;;;30.99;46.86;100350.23;105179;1271;59692;-75
2022/08/24 09:15:08;;;;;;;14.50;5.60;;;;;;;32.66;44.23;100346.55;105101;1271;59634;-72
2022/08/24 09:18:23;;;;;;;16.00;4.60;;;;;;;34.69;39.23;100348.20;104689;1279;72178;-74
2022/08/24 09:21:54;;;;;;;10.50;3.20;;;;;;;36.17;36.36;100343.52;103679;1287;69615;-72
2022/08/24 09:24:51;;;;;;;13.20;4.50;;;;;;;37.57;34.05;100338.06;103913;1287;72932;-72
2022/08/24 09:28:49;;;;;;;11.30;3.00;;;;;;;37.85;32.76;100341.83;103847;1287;59856;-74
2022/08/24 09:32:16;;;;;;;14.00;3.30;;;;;;;36.77;34.38;100339.84;103512;1287;62072;-74
2022/08/24 09:35:18;;;;;;;13.50;6.30;;;;;;;35.32;36.35;100344.11;103998;1286;74620;-74
2022/08/24 09:38:43;;;;;;;16.40;6.60;;;;;;;34.20;38.32;100337.83;103748;1287;68285;-73
2022/08/24 09:42:34;;;;;;;13.40;5.70;;;;;;;33.21;40.12;100338.21;103694;1287;74253;-74
2022/08/24 09:46:32;;;;;;;19.10;6.30;;;;;;;32.23;42.36;100332.36;104072;1287;59780;-76
2022/08/24 09:49:55;;;;;;;13.10;4.00;;;;;;;31.62;43.64;100328.47;104149;1279;61546;-73
2022/08/24 09:52:49;;;;;;;12.40;3.10;;;;;;;31.34;44.34;100333.14;104581;1279;73533;-74
2022/08/24 09:56:00;;;;;;;15.20;5.30;;;;;;;31.20;44.86;100329.45;104771;1279;69728;-72
2022/08/24 09:59:04;;;;;;;11.20;4.30;;;;;;;31.60;44.74;100329.08;104823;1271;72195;-75
2022/08/24 10:02:40;;;;;;;13.10;3.70;;;;;;;32.65;42.88;100325.81;105230;1271;59746;-72
2022/08/24 10:05:44;;;;;;;16.30;4.30;;;;;;;34.14;40.34;100324.45;105323;1271;61045;-72
2022/08/24 10:09:02;;;;;;;11.00;3.80;;;;;;;35.39;37.52;100328.02;105212;1271;74750;-74
2022/08/24 10:12:06;;;;;;;13.40;3.60;;;;;;;36.86;34.93;100324.20;105585;1271;68052;-72
2022/08/24 10:15:33;;;;;;;12.70;3.00;;;;;;;37.04;34.58;100327.73;105137;1271;72794;-71
2022/08/24 10:19:12;;;;;;;12.50;3.00;;;;;;;36.14;35.40;100323.05;104942;1271;60006;-74
2022/08/24 10:22:34;;;;;;;14.40;5.10;;;;;;;35.01;36.86;100320.61;104990;1271;59647;-72
2022/08/24 10:26:02;;;;;;;13.50;3.60;;;;;;;33.99;38.24;100319.02;105294;1271;75035;-72
2022/08/24 10:29:05;;;;;;;14.40;3.80;;;;;;;32.78;40.87;100324.86;105440;1271;68338;-72
2022/08/24 10:32:48;;;;;;;22.00;13.00;;;;;;;31.96;42.84;100324.35;105231;1271;71642;-72
2022/08/24 10:36:03;;;;;;;12.30;5.00;;;;;;;31.14;44.44;100329.23;104549;1278;59745;-73
2022/08/24 10:40:01;;;;;;;15.10;4.60;;;;;;;30.66;46.05;100329.20;104625;1279;61276;-73
2022/08/24 10:43:57;;;;;;;13.10;5.00;;;;;;;31.47;44.48;100328.16;103889;1287;73370;-74
2022/08/24 10:47:19;;;;;;;18.10;5.50;;;;;;;32.03;43.89;100329.39;104133;1286;67886;-76
2022/08/24 10:50:27;;;;;;;13.90;4.00;;;;;;;32.13;42.41;100328.05;103804;1287;74409;-73
2022/08/24 10:53:28;;;;;;;15.10;6.60;;;;;;;32.15;42.69;100329.77;103997;1286;59956;-72
2022/08/24 10:56:31;;;;;;;11.60;3.60;;;;;;;32.82;42.62;100332.07;103917;1287;60260;-74
2022/08/24 10:59:52;;;;;;;13.10;3.20;;;;;;;32.91;43.12;100332.27;104016;1287;73986;-73
2022/08/24 11:02:45;;;;;;;13.80;4.30;;;;;;;32.40;44.41;100331.78;103820;1286;68489;-74
2022/08/24 11:05:48;;;;;;;15.90;5.40;;;;;;;31.85;45.68;100334.23;103876;1287;72849;-75
2022/08/24 11:08:54;;;;;;;14.60;5.10;;;;;;;31.24;46.80;100336.92;104002;1287;59783;-74
2022/08/24 11:11:48;;;;;;;11.90;3.70;;;;;;;30.66;48.33;100341.52;104566;1280;61028;-73
2022/08/24 11:14:37;;;;;;;14.90;4.10;;;;;;;30.26;48.62;100340.81;104389;1278;74631;-72
2022/08/24 11:17:30;;;;;;;13.90;6.30;;;;;;;29.92;49.51;100344.11;104808;1271;69588;-74
2022/08/24 11:20:47;;;;;;;12.40;4.40;;;;;;;29.54;50.58;100344.83;105338;1270;74444;-74
2022/08/24 11:23:39;;;;;;;16.40;7.20;;;;;;;29.07;51.93;100347.73;105204;1271;59678;-75
2022/08/24 11:26:28;;;;;;;14.50;4.10;;;;;;;28.72;52.20;100350.66;105169;1271;59770;-76
2022/08/24 11:29:17;;;;;;;15.40;5.10;;;;;;;28.49;52.79;100352.17;105097;1271;73064;-73
2022/08/24 11:32:24;;;;;;;13.30;4.40;;;;;;;28.35;53.76;100358.08;105398;1271;69389;-73
2022/08/24 11:35:25;;;;;;;13.60;4.10;;;;;;;28.15;53.97;100357.23;105137;1272;72738;-73
2022/08/24 11:38:36;;;;;;;12.90;4.30;;;;;;;28.07;54.36;100356.65;105249;1271;59707;-74
2022/08/24 11:42:01;;;;;;;14.40;4.20;;;;;;;28.40;53.83;100360.20;105151;1271;60266;-73
2022/08/24 11:45:30;;;;;;;14.00;4.00;;;;;;;28.67;53.55;100358.23;105375;1271;74345;-73
2022/08/24 11:49:15;;;;;;;20.90;8.20;;;;;;;28.81;53.21;100360.17;104846;1273;68060;-73
2022/08/24 11:53:12;;;;;;;19.90;10.20;;;;;;;28.66;53.48;100361.94;104548;1279;72969;-73
2022/08/24 11:56:47;;;;;;;11.70;4.60;;;;;;;28.36;53.85;100363.10;104987;1279;59677;-73
2022/08/24 12:00:13;;;;;;;14.00;5.70;;;;;;;28.09;54.69;100361.84;104909;1279;60572;-74
2022/08/24 12:03:16;;;;;;;14.50;3.70;;;;;;;27.92;55.33;100367.24;104648;1279;74609;-74
2022/08/24 12:06:53;;;;;;;17.40;4.20;;;;;;;27.83;56.08;100360.91;104534;1279;69672;-76
2022/08/24 12:10:08;;;;;;;13.30;3.80;;;;;;;27.94;55.52;100359.44;103926;1282;74616;-73
2022/08/24 12:13:38;;;;;;;11.40;3.30;;;;;;;28.12;55.89;100361.52;104155;1282;59612;-75
2022/08/24 12:16:31;;;;;;;14.20;3.50;;;;;;;28.40;55.66;100361.89;104184;1283;59741;-72
2022/08/24 12:19:43;;;;;;;;;;;;;;;;;;;;;
2022/08/24 12:22:33;;;;;;;11.70;3.40;;;;;;;29.01;53.26;100364.66;104502;1279;68000;-76
2022/08/24 12:28:55;;;;;;;15.40;4.20;;;;;;;29.23;51.88;100366.38;104453;1279;59687;-73
2022/08/24 12:32:00;;;;;;;14.70;4.30;;;;;;;29.38;51.88;100363.36;104735;1279;60493;-73
2022/08/24 12:34:56;;;;;;;11.10;3.30;;;;;;;29.40;51.54;100365.94;104469;1279;74448;-74
2022/08/24 12:38:01;;;;;;;11.70;3.40;;;;;;;29.37;52.00;100365.64;104403;1279;66830;-73
2022/08/24 12:41:00;;;;;;;13.50;3.60;;;;;;;29.42;50.99;100365.52;104723;1279;74606;-74
2022/08/24 12:44:13;;;;;;;11.60;3.00;;;;;;;29.44;51.57;100364.70;104636;1279;59900;-73
2022/08/24 12:47:02;;;;;;;11.20;3.10;;;;;;;29.24;52.06;100365.14;104759;1271;61119;-74
2022/08/24 12:50:01;;;;;;;11.20;2.70;;;;;;;29.00;52.94;100367.02;105008;1271;70948;-74
2022/08/24 12:53:14;;;;;;;13.90;3.00;;;;;;;28.69;54.27;100370.50;105102;1273;68069;-73
2022/08/24 12:56:36;;;;;;;9.10;2.70;;;;;;;28.62;54.36;100367.75;105164;1271;72820;-73
2022/08/24 12:59:48;;;;;;;11.90;2.60;;;;;;;28.53;54.59;100368.11;105057;1271;59580;-72
2022/08/24 13:02:44;;;;;;;11.60;3.00;;;;;;;28.51;54.88;100369.88;105375;1271;60589;-72
2022/08/24 13:05:48;;;;;;;9.90;2.90;;;;;;;28.48;55.19;100373.39;105182;1271;73161;-74
2022/08/24 13:08:44;;;;;;;11.10;2.80;;;;;;;28.31;54.88;100373.83;105254;1270;66535;-73
2022/08/24 13:11:34;;;;;;;10.10;2.40;;;;;;;28.06;55.02;100376.73;105151;1273;71585;-72
2022/08/24 13:14:27;;;;;;;12.00;2.70;;;;;;;27.87;55.52;100377.87;105483;1270;59993;-75
2022/08/24 13:17:18;;;;;;;12.00;3.00;;;;;;;27.77;55.87;100378.39;105119;1271;60851;-73
2022/08/24 13:20:29;;;;;;;10.60;3.70;;;;;;;27.66;56.74;100379.95;105231;1271;73781;-74
2022/08/24 13:23:22;;;;;;;9.10;3.20;;;;;;;27.58;57.10;100379.23;105163;1271;67079;-72
2022/08/24 13:26:28;;;;;;;9.70;2.40;;;;;;;27.52;57.16;100378.52;105147;1271;74738;-72
2022/08/24 13:29:16;;;;;;;11.00;2.70;;;;;;;27.34;57.62;100385.52;105439;1271;59614;-74
2022/08/24 13:32:06;;;;;;;8.70;2.60;;;;;;;27.32;58.14;100392.42;105123;1273;59468;-74
2022/08/24 13:34:56;;;;;;;11.90;2.80;;;;;;;27.27;58.22;100393.20;105095;1271;73127;-74
2022/08/24 13:39:06;;;;;;;10.20;2.90;;;;;;;27.20;58.56;100390.45;105062;1271;67063;-72
2022/08/24 13:42:15;;;;;;;9.60;2.50;;;;;;;27.03;58.80;100392.88;104443;1279;74462;-74
2022/08/24 13:45:34;;;;;;;13.80;4.40;;;;;;;26.80;59.40;100393.95;104686;1279;59783;-73